createdAt,value
2017-11-20T00:00:34.087Z,0.82
2017-11-20T00:01:08.905Z,1.05
2017-11-20T00:01:43.649Z,1.20
2017-11-20T00:02:18.084Z,1.67
2017-11-20T00:02:52.843Z,1.10
2017-11-20T00:03:27.617Z,1.30
2017-11-20T00:04:02.367Z,1.27
2017-11-20T00:04:37.125Z,1.20
2017-11-20T00:05:11.905Z,1.30
2017-11-20T00:05:46.321Z,1.20
2017-11-20T00:06:21.083Z,1.12
2017-11-20T00:06:56.567Z,1.17
2017-11-20T00:07:31.336Z,1.00
2017-11-20T00:08:06.117Z,1.10
2017-11-20T00:08:40.879Z,1.70
2017-11-20T00:09:15.624Z,1.20
2017-11-20T00:09:50.057Z,1.10
2017-11-20T00:10:24.821Z,1.12
2017-11-20T00:10:59.574Z,0.90
2017-11-20T00:11:34.333Z,1.10
2017-11-20T00:12:09.111Z,1.45
2017-11-20T00:12:43.861Z,1.52
2017-11-20T00:13:18.614Z,1.10
2017-11-20T00:13:53.374Z,1.10
2017-11-20T00:14:28.123Z,1.40
2017-11-20T00:15:02.893Z,1.20
2017-11-20T00:15:37.678Z,1.25
2017-11-20T00:16:12.449Z,1.17
2017-11-20T00:16:47.203Z,1.15
2017-11-20T00:17:21.982Z,1.27
2017-11-20T00:17:56.842Z,1.30
2017-11-20T00:18:31.587Z,1.20
2017-11-20T00:19:06.326Z,1.20
2017-11-20T00:19:41.084Z,1.25
2017-11-20T00:20:15.842Z,1.40
2017-11-20T00:20:50.628Z,1.02
2017-11-20T00:21:25.387Z,1.37
2017-11-20T00:22:00.149Z,1.20
2017-11-20T00:22:34.906Z,1.10
2017-11-20T00:23:09.677Z,1.10
2017-11-20T00:23:44.493Z,1.35
2017-11-20T00:24:19.267Z,1.00
2017-11-20T00:24:54.022Z,1.25
2017-11-20T00:25:28.849Z,1.10
2017-11-20T00:26:03.874Z,1.70
2017-11-20T00:26:39.354Z,1.40
2017-11-20T00:27:14.210Z,1.25
2017-11-20T00:27:48.976Z,0.93
2017-11-20T00:28:23.725Z,1.42
2017-11-20T00:28:58.486Z,1.00
2017-11-20T00:29:33.238Z,1.12
2017-11-20T00:30:07.981Z,1.55
2017-11-20T00:30:42.730Z,1.30
2017-11-20T00:31:17.503Z,1.10
2017-11-20T00:31:52.257Z,1.20
2017-11-20T00:32:27.016Z,1.75
2017-11-20T00:33:01.791Z,1.25
2017-11-20T00:33:36.574Z,0.90
2017-11-20T00:34:11.330Z,1.20
2017-11-20T00:34:46.099Z,1.15
2017-11-20T00:35:20.857Z,1.02
2017-11-20T00:35:55.612Z,1.37
2017-11-20T00:36:30.378Z,1.00
2017-11-20T00:37:05.141Z,1.50
2017-11-20T00:37:40.089Z,1.23
2017-11-20T00:38:14.849Z,1.02
2017-11-20T00:38:49.630Z,1.00
2017-11-20T00:39:24.373Z,1.00
2017-11-20T00:39:59.126Z,1.20
2017-11-20T00:40:33.870Z,1.87
2017-11-20T00:41:08.610Z,0.90
2017-11-20T00:41:43.677Z,1.25
2017-11-20T00:42:18.424Z,1.12
2017-11-20T00:42:53.263Z,1.50
2017-11-20T00:43:28.010Z,1.25
2017-11-20T00:44:02.754Z,1.10
2017-11-20T00:44:37.512Z,1.10
2017-11-20T00:45:12.262Z,1.10
2017-11-20T00:45:46.680Z,1.00
2017-11-20T00:46:21.422Z,1.30
2017-11-20T00:46:56.190Z,2.05
2017-11-20T00:47:30.941Z,1.10
2017-11-20T00:48:05.706Z,1.17
2017-11-20T00:48:40.475Z,1.10
2017-11-20T00:49:15.241Z,1.10
2017-11-20T00:49:49.683Z,1.20
2017-11-20T00:50:24.442Z,1.00
2017-11-20T00:50:59.212Z,1.58
2017-11-20T00:51:33.978Z,1.20
2017-11-20T00:52:08.762Z,1.17
2017-11-20T00:52:43.532Z,1.20
2017-11-20T00:53:18.278Z,0.90
2017-11-20T00:53:53.056Z,1.40
2017-11-20T00:54:27.806Z,1.27
2017-11-20T00:55:02.549Z,1.20
2017-11-20T00:55:37.291Z,1.87
2017-11-20T00:56:12.830Z,1.10
2017-11-20T00:56:47.583Z,1.23
2017-11-20T00:57:22.373Z,1.02
2017-11-20T00:57:57.220Z,1.15
2017-11-20T00:58:31.999Z,1.17
2017-11-20T00:59:06.744Z,1.00
2017-11-20T00:59:41.510Z,1.15
2017-11-20T01:00:15.932Z,1.10
2017-11-20T01:00:50.685Z,1.00
2017-11-20T01:01:25.459Z,1.33
2017-11-20T01:02:00.215Z,1.55
2017-11-20T01:02:35.326Z,1.20
2017-11-20T01:03:10.561Z,1.33
2017-11-20T01:03:45.312Z,1.08
2017-11-20T01:04:20.067Z,1.20
2017-11-20T01:04:54.805Z,0.90
2017-11-20T01:06:10.868Z,1.52
2017-11-20T01:06:45.603Z,1.40
2017-11-20T01:07:20.366Z,1.10
2017-11-20T01:07:55.250Z,1.52
2017-11-20T01:08:29.997Z,1.40
2017-11-20T01:09:04.421Z,1.30
2017-11-20T01:09:39.167Z,1.17
2017-11-20T01:10:13.925Z,1.40
2017-11-20T01:10:48.679Z,1.00
2017-11-20T01:11:23.421Z,1.67
2017-11-20T01:11:58.173Z,1.20
2017-11-20T01:12:32.922Z,1.30
2017-11-20T01:13:07.709Z,1.20
2017-11-20T01:13:42.468Z,1.23
2017-11-20T01:14:17.213Z,1.05
2017-11-20T01:14:51.968Z,1.30
2017-11-20T01:15:26.726Z,1.50
2017-11-20T01:16:01.482Z,1.55
2017-11-20T01:16:36.238Z,1.42
2017-11-20T01:17:10.996Z,1.37
2017-11-20T01:17:45.840Z,1.30
2017-11-20T01:18:20.619Z,1.10
2017-11-20T01:18:55.377Z,1.48
2017-11-20T01:19:30.162Z,1.55
2017-11-20T01:20:04.930Z,1.60
2017-11-20T01:20:39.668Z,1.10
2017-11-20T01:21:14.449Z,1.52
2017-11-20T01:21:49.207Z,1.37
2017-11-20T01:22:23.971Z,1.02
2017-11-20T01:22:58.721Z,2.25
2017-11-20T01:23:33.507Z,1.30
2017-11-20T01:24:08.257Z,1.10
2017-11-20T01:24:43.011Z,1.02
2017-11-20T01:25:17.766Z,2.35
2017-11-20T01:25:52.509Z,1.25
2017-11-20T01:26:27.296Z,1.37
2017-11-20T01:27:02.067Z,1.30
2017-11-20T01:27:36.841Z,1.50
2017-11-20T01:28:11.646Z,1.20
2017-11-20T01:28:46.413Z,1.48
2017-11-20T01:29:21.179Z,1.52
2017-11-20T01:29:55.948Z,1.37
2017-11-20T01:30:30.721Z,1.25
2017-11-20T01:31:07.323Z,1.70
2017-11-20T01:31:42.090Z,1.20
2017-11-20T01:32:16.866Z,1.62
2017-11-20T01:32:51.622Z,1.25
2017-11-20T01:33:27.257Z,1.52
2017-11-20T01:34:02.326Z,1.65
2017-11-20T01:34:37.096Z,1.23
2017-11-20T01:35:13.108Z,1.10
2017-11-20T01:35:47.522Z,1.65
2017-11-20T01:36:22.262Z,2.17
2017-11-20T01:36:57.015Z,1.40
2017-11-20T01:37:31.894Z,1.30
2017-11-20T01:38:06.668Z,1.30
2017-11-20T01:38:41.421Z,1.23
2017-11-20T01:39:17.325Z,1.45
2017-11-20T01:39:52.078Z,1.23
2017-11-20T01:40:26.830Z,1.27
2017-11-20T01:41:01.569Z,1.48
2017-11-20T01:41:37.643Z,1.45
2017-11-20T01:42:12.404Z,1.10
2017-11-20T01:42:47.183Z,1.25
2017-11-20T01:43:21.974Z,1.40
2017-11-20T01:43:56.406Z,1.45
2017-11-20T01:44:31.201Z,1.40
2017-11-20T01:45:06.118Z,1.30
2017-11-20T01:45:41.983Z,1.20
2017-11-20T01:46:16.732Z,1.20
2017-11-20T01:46:52.078Z,1.58
2017-11-20T01:47:26.821Z,1.52
2017-11-20T01:48:01.564Z,1.10
2017-11-20T01:48:36.309Z,1.42
2017-11-20T01:49:11.056Z,1.73
2017-11-20T01:49:45.838Z,1.35
2017-11-20T01:50:20.588Z,1.10
2017-11-20T01:50:55.001Z,1.60
2017-11-20T01:51:29.749Z,1.42
2017-11-20T01:52:05.597Z,1.42
2017-11-20T01:52:40.544Z,1.52
2017-11-20T01:53:15.301Z,1.70
2017-11-20T01:53:50.046Z,1.42
2017-11-20T01:54:25.766Z,1.25
2017-11-20T01:55:00.886Z,1.55
2017-11-20T01:55:35.982Z,1.77
2017-11-20T01:56:10.742Z,1.70
2017-11-20T01:57:29.077Z,1.60
2017-11-20T01:58:03.834Z,1.70
2017-11-20T01:58:38.589Z,1.50
2017-11-20T01:59:13.406Z,1.40
2017-11-20T01:59:48.170Z,1.30
2017-11-20T02:00:22.610Z,1.48
2017-11-20T02:00:57.030Z,1.48
2017-11-20T02:01:31.798Z,2.25
2017-11-20T02:02:06.546Z,1.42
2017-11-20T02:02:47.016Z,1.40
2017-11-20T02:03:21.445Z,1.70
2017-11-20T02:03:55.867Z,1.27
2017-11-20T02:04:30.283Z,1.60
2017-11-20T02:05:05.342Z,1.55
2017-11-20T02:05:40.088Z,1.55
2017-11-20T02:06:14.847Z,2.05
2017-11-20T02:06:49.600Z,1.30
2017-11-20T02:07:24.518Z,1.45
2017-11-20T02:07:59.269Z,1.80
2017-11-20T02:08:33.678Z,1.40
2017-11-20T02:09:08.110Z,1.73
2017-11-20T02:09:42.858Z,1.52
2017-11-20T02:10:17.693Z,1.75
2017-11-20T02:10:52.500Z,1.87
2017-11-20T02:11:27.291Z,1.48
2017-11-20T02:12:02.038Z,1.62
2017-11-20T02:12:36.802Z,1.35
2017-11-20T02:13:11.555Z,1.67
2017-11-20T02:13:46.326Z,1.70
2017-11-20T02:14:21.117Z,1.67
2017-11-20T02:14:55.869Z,1.58
2017-11-20T02:15:30.645Z,1.85
2017-11-20T02:16:05.744Z,1.40
2017-11-20T02:16:40.514Z,1.62
2017-11-20T02:17:15.547Z,1.20
2017-11-20T02:17:50.438Z,1.65
2017-11-20T02:18:25.188Z,1.30
2017-11-20T02:18:59.933Z,1.90
2017-11-20T02:19:34.401Z,2.22
2017-11-20T02:20:08.837Z,1.58
2017-11-20T02:20:43.632Z,1.80
2017-11-20T02:21:18.049Z,1.58
2017-11-20T02:21:52.472Z,1.70
2017-11-20T02:22:26.910Z,1.48
2017-11-20T02:23:01.361Z,1.40
2017-11-20T02:23:40.714Z,1.62
2017-11-20T02:24:14.941Z,1.33
2017-11-20T02:24:49.701Z,1.65
2017-11-20T02:25:24.125Z,1.42
2017-11-20T02:25:58.594Z,1.70
2017-11-20T02:26:33.083Z,1.40
2017-11-20T02:27:07.501Z,2.12
2017-11-20T02:27:41.961Z,1.92
2017-11-20T02:28:16.407Z,1.80
2017-11-20T02:28:50.836Z,1.80
2017-11-20T02:29:25.978Z,1.77
2017-11-20T02:30:01.338Z,1.10
2017-11-20T02:30:35.804Z,2.00
2017-11-20T02:31:10.530Z,1.75
2017-11-20T02:31:45.445Z,1.40
2017-11-20T02:32:19.679Z,1.45
2017-11-20T02:32:55.401Z,1.30
2017-11-20T02:33:29.842Z,1.48
2017-11-20T02:34:04.346Z,1.48
2017-11-20T02:34:39.209Z,1.60
2017-11-20T02:35:15.709Z,1.25
2017-11-20T02:35:51.248Z,1.70
2017-11-20T02:36:26.023Z,1.30
2017-11-20T02:37:00.772Z,1.40
2017-11-20T02:37:35.480Z,1.90
2017-11-20T02:38:09.902Z,1.50
2017-11-20T02:38:44.369Z,1.60
2017-11-20T02:39:19.013Z,1.52
2017-11-20T02:39:53.434Z,1.60
2017-11-20T02:40:28.035Z,1.50
2017-11-20T02:41:02.465Z,1.50
2017-11-20T02:41:37.598Z,1.83
2017-11-20T02:42:12.740Z,1.75
2017-11-20T02:42:47.860Z,1.37
2017-11-20T02:43:22.404Z,1.40
2017-11-20T02:43:56.821Z,1.58
2017-11-20T02:44:31.227Z,1.50
2017-11-20T02:45:05.642Z,1.50
2017-11-20T02:45:40.081Z,1.70
2017-11-20T02:46:14.518Z,1.75
2017-11-20T02:46:48.952Z,1.67
2017-11-20T02:47:23.486Z,1.60
2017-11-20T02:47:57.910Z,1.27
2017-11-20T02:48:32.693Z,1.50
2017-11-20T02:49:08.101Z,1.60
2017-11-20T02:49:42.522Z,1.60
2017-11-20T02:50:16.960Z,2.05
2017-11-20T02:50:51.383Z,1.60
2017-11-20T02:51:25.821Z,1.50
2017-11-20T02:52:00.298Z,1.73
2017-11-20T02:52:35.047Z,1.62
2017-11-20T02:53:09.464Z,1.50
2017-11-20T02:53:44.094Z,1.70
2017-11-20T02:54:19.590Z,1.90
2017-11-20T02:54:54.367Z,1.27
2017-11-20T02:55:28.806Z,1.73
2017-11-20T02:56:03.219Z,1.60
2017-11-20T02:56:37.967Z,1.80
2017-11-20T02:57:12.536Z,1.50
2017-11-20T02:57:46.975Z,1.35
2017-11-20T02:58:21.396Z,1.60
2017-11-20T02:58:55.832Z,1.30
2017-11-20T02:59:30.289Z,1.80
2017-11-20T03:00:04.799Z,1.62
2017-11-20T03:00:39.358Z,1.17
2017-11-20T03:01:13.766Z,1.48
2017-11-20T03:01:48.511Z,1.80
2017-11-20T03:02:23.294Z,1.42
2017-11-20T03:02:58.077Z,1.67
2017-11-20T03:03:32.830Z,1.50
2017-11-20T03:04:07.255Z,1.60
2017-11-20T03:04:42.010Z,1.45
2017-11-20T03:05:16.768Z,2.25
2017-11-20T03:05:51.517Z,1.27
2017-11-20T03:06:26.260Z,1.35
2017-11-20T03:07:01.010Z,1.62
2017-11-20T03:07:35.989Z,1.55
2017-11-20T03:08:10.750Z,1.90
2017-11-20T03:08:45.494Z,1.27
2017-11-20T03:09:20.245Z,2.25
2017-11-20T03:09:54.994Z,1.90
2017-11-20T03:10:29.427Z,1.60
2017-11-20T03:11:04.169Z,1.50
2017-11-20T03:11:38.694Z,1.40
2017-11-20T03:12:13.102Z,1.77
2017-11-20T03:12:47.878Z,1.77
2017-11-20T03:13:22.413Z,1.80
2017-11-20T03:13:57.169Z,1.50
2017-11-20T03:14:31.637Z,1.60
2017-11-20T03:15:06.392Z,1.62
2017-11-20T03:15:41.134Z,1.65
2017-11-20T03:16:15.883Z,1.60
2017-11-20T03:16:50.633Z,2.17
2017-11-20T03:17:25.382Z,1.40
2017-11-20T03:18:02.190Z,1.20
2017-11-20T03:18:36.617Z,1.80
2017-11-20T03:19:11.052Z,1.62
2017-11-20T03:19:45.485Z,1.60
2017-11-20T03:20:19.901Z,1.70
2017-11-20T03:20:54.654Z,1.90
2017-11-20T03:21:29.098Z,1.55
2017-11-20T03:22:03.538Z,1.25
2017-11-20T03:22:37.957Z,1.37
2017-11-20T03:23:12.978Z,2.17
2017-11-20T03:23:47.736Z,1.52
2017-11-20T03:24:22.599Z,1.50
2017-11-20T03:24:57.039Z,1.92
2017-11-20T03:25:31.791Z,1.40
2017-11-20T03:26:06.222Z,1.80
2017-11-20T03:26:40.642Z,1.42
2017-11-20T03:27:15.400Z,1.35
2017-11-20T03:27:50.157Z,1.75
2017-11-20T03:28:24.954Z,1.62
2017-11-20T03:28:59.733Z,1.15
2017-11-20T03:29:34.485Z,1.70
2017-11-20T03:30:08.910Z,1.70
2017-11-20T03:30:43.331Z,2.55
2017-11-20T03:31:17.761Z,1.50
2017-11-20T03:31:52.541Z,1.40
2017-11-20T03:32:27.468Z,1.60
2017-11-20T03:33:02.276Z,1.30
2017-11-20T03:33:37.061Z,1.50
2017-11-20T03:34:11.822Z,1.80
2017-11-20T03:34:46.568Z,1.30
2017-11-20T03:35:21.336Z,1.80
2017-11-20T03:35:58.039Z,1.80
2017-11-20T03:36:32.809Z,1.10
2017-11-20T03:37:07.557Z,1.25
2017-11-20T03:37:41.972Z,1.60
2017-11-20T03:38:16.716Z,1.45
2017-11-20T03:38:52.588Z,1.80
2017-11-20T03:39:27.097Z,1.85
2017-11-20T03:40:01.874Z,1.40
2017-11-20T03:40:36.441Z,1.27
2017-11-20T03:41:10.873Z,1.40
2017-11-20T03:41:45.300Z,1.65
2017-11-20T03:42:19.717Z,1.33
2017-11-20T03:42:54.131Z,1.92
2017-11-20T03:43:28.566Z,1.33
2017-11-20T03:44:03.014Z,1.30
2017-11-20T03:44:37.781Z,1.10
2017-11-20T03:45:12.592Z,1.75
2017-11-20T03:45:47.325Z,1.50
2017-11-20T03:46:22.130Z,1.40
2017-11-20T03:46:56.943Z,1.58
2017-11-20T03:47:32.465Z,1.00
2017-11-20T03:48:07.202Z,1.20
2017-11-20T03:48:41.965Z,2.17
2017-11-20T03:49:16.737Z,1.50
2017-11-20T03:49:51.474Z,1.33
2017-11-20T03:50:26.230Z,1.02
2017-11-20T03:51:00.970Z,1.50
2017-11-20T03:51:35.718Z,1.65
2017-11-20T03:52:10.457Z,1.25
2017-11-20T03:52:44.878Z,1.20
2017-11-20T03:53:19.289Z,1.08
2017-11-20T03:53:54.025Z,1.50
2017-11-20T03:54:28.828Z,1.40
2017-11-20T03:55:03.589Z,1.33
2017-11-20T03:55:38.373Z,1.70
2017-11-20T03:56:13.249Z,1.98
2017-11-20T03:56:48.033Z,2.12
2017-11-20T03:57:22.818Z,1.05
2017-11-20T03:57:57.577Z,1.23
2017-11-20T03:58:32.398Z,1.00
2017-11-20T03:59:07.170Z,1.10
2017-11-20T03:59:42.183Z,1.77
2017-11-20T04:00:16.947Z,1.10
2017-11-20T04:00:51.702Z,1.67
2017-11-20T04:01:26.450Z,2.20
2017-11-20T04:02:01.208Z,1.40
2017-11-20T04:02:35.957Z,1.25
2017-11-20T04:03:10.737Z,1.90
2017-11-20T04:03:45.488Z,1.30
2017-11-20T04:04:20.252Z,1.20
2017-11-20T04:04:55.084Z,1.50
2017-11-20T04:05:29.853Z,1.37
2017-11-20T04:06:04.611Z,1.25
2017-11-20T04:06:39.365Z,1.15
2017-11-20T04:07:14.124Z,1.33
2017-11-20T04:07:48.868Z,1.40
2017-11-20T04:08:23.646Z,1.37
2017-11-20T04:08:58.405Z,1.83
2017-11-20T04:09:33.158Z,1.30
2017-11-20T04:10:07.934Z,1.02
2017-11-20T04:10:42.682Z,1.20
2017-11-20T04:11:17.445Z,2.00
2017-11-20T04:11:52.200Z,1.33
2017-11-20T04:12:26.949Z,1.40
2017-11-20T04:13:01.701Z,1.30
2017-11-20T04:13:36.442Z,1.20
2017-11-20T04:14:11.206Z,1.65
2017-11-20T04:14:45.973Z,1.65
2017-11-20T04:15:20.741Z,1.27
2017-11-20T04:15:55.518Z,1.60
2017-11-20T04:16:30.284Z,1.37
2017-11-20T04:17:05.047Z,1.10
2017-11-20T04:17:39.812Z,1.15
2017-11-20T04:18:14.574Z,1.20
2017-11-20T04:18:49.344Z,1.45
2017-11-20T04:19:24.100Z,1.10
2017-11-20T04:19:58.862Z,1.10
2017-11-20T04:20:33.736Z,1.20
2017-11-20T04:21:08.493Z,1.40
2017-11-20T04:21:43.251Z,1.20
2017-11-20T04:22:18.006Z,1.37
2017-11-20T04:22:52.749Z,1.10
2017-11-20T04:23:27.501Z,1.48
2017-11-20T04:24:02.262Z,1.33
2017-11-20T04:24:37.025Z,0.98
2017-11-20T04:25:11.784Z,1.45
2017-11-20T04:25:46.850Z,0.93
2017-11-20T04:26:21.665Z,1.37
2017-11-20T04:26:56.411Z,1.08
2017-11-20T04:27:31.188Z,1.00
2017-11-20T04:28:05.935Z,1.23
2017-11-20T04:28:40.689Z,1.20
2017-11-20T04:29:15.435Z,1.50
2017-11-20T04:29:50.188Z,1.73
2017-11-20T04:30:24.628Z,1.12
2017-11-20T04:30:59.065Z,1.20
2017-11-20T04:31:33.490Z,1.40
2017-11-20T04:32:08.245Z,1.10
2017-11-20T04:32:42.662Z,1.55
2017-11-20T04:33:17.094Z,1.75
2017-11-20T04:33:51.840Z,1.20
2017-11-20T04:34:26.600Z,1.20
2017-11-20T04:35:01.359Z,1.20
2017-11-20T04:35:36.146Z,1.58
2017-11-20T04:36:10.982Z,1.30
2017-11-20T04:36:45.749Z,1.50
2017-11-20T04:37:20.170Z,1.45
2017-11-20T04:37:55.346Z,1.35
2017-11-20T04:38:30.100Z,1.40
2017-11-20T04:39:04.590Z,1.50
2017-11-20T04:39:39.017Z,1.58
2017-11-20T04:40:13.766Z,2.30
2017-11-20T04:40:48.616Z,1.15
2017-11-20T04:41:23.836Z,1.42
2017-11-20T04:41:58.254Z,1.70
2017-11-20T04:42:33.018Z,1.30
2017-11-20T04:43:07.761Z,1.10
2017-11-20T04:43:42.178Z,1.20
2017-11-20T04:44:17.561Z,1.75
2017-11-20T04:44:52.323Z,1.30
2017-11-20T04:45:26.749Z,1.98
2017-11-20T04:46:01.498Z,1.45
2017-11-20T04:46:36.364Z,1.42
2017-11-20T04:47:11.120Z,1.62
2017-11-20T04:47:45.873Z,1.40
2017-11-20T04:48:20.712Z,1.35
2017-11-20T04:48:55.130Z,1.42
2017-11-20T04:49:29.896Z,1.65
2017-11-20T04:50:04.650Z,1.50
2017-11-20T04:50:39.699Z,1.55
2017-11-20T04:51:14.140Z,1.40
2017-11-20T04:51:48.572Z,1.40
2017-11-20T04:52:23.333Z,1.52
2017-11-20T04:52:58.112Z,1.20
2017-11-20T04:53:32.874Z,1.58
2017-11-20T04:54:07.300Z,1.35
2017-11-20T04:54:41.762Z,1.60
2017-11-20T04:55:16.520Z,1.30
2017-11-20T04:55:50.940Z,1.48
2017-11-20T04:56:25.714Z,1.35
2017-11-20T04:57:00.474Z,1.40
2017-11-20T04:57:35.224Z,1.15
2017-11-20T04:58:10.026Z,1.50
2017-11-20T04:58:44.802Z,1.52
2017-11-20T04:59:19.540Z,1.45
2017-11-20T04:59:54.312Z,1.35
2017-11-20T05:00:28.744Z,1.27
2017-11-20T05:01:03.195Z,1.30
2017-11-20T05:01:37.971Z,1.30
2017-11-20T05:02:12.713Z,1.30
2017-11-20T05:02:47.838Z,1.50
2017-11-20T05:03:22.619Z,1.30
2017-11-20T05:03:57.369Z,1.50
2017-11-20T05:04:32.188Z,1.40
2017-11-20T05:05:06.944Z,1.65
2017-11-20T05:05:41.689Z,1.45
2017-11-20T05:06:16.441Z,1.70
2017-11-20T05:06:51.194Z,1.42
2017-11-20T05:07:25.942Z,1.30
2017-11-20T05:08:00.694Z,1.45
2017-11-20T05:08:35.461Z,2.12
2017-11-20T05:09:09.896Z,1.50
2017-11-20T05:09:44.674Z,1.50
2017-11-20T05:10:19.438Z,1.55
2017-11-20T05:10:54.189Z,2.00
2017-11-20T05:11:28.938Z,1.60
2017-11-20T05:12:03.690Z,1.60
2017-11-20T05:12:38.452Z,1.42
2017-11-20T05:13:13.204Z,2.00
2017-11-20T05:13:47.981Z,1.50
2017-11-20T05:14:22.833Z,1.92
2017-11-20T05:14:57.594Z,1.85
2017-11-20T05:15:32.336Z,1.70
2017-11-20T05:16:07.184Z,1.90
2017-11-20T05:16:41.933Z,1.70
2017-11-20T05:17:16.687Z,1.90
2017-11-20T05:17:51.450Z,1.58
2017-11-20T05:18:26.214Z,1.80
2017-11-20T05:19:00.997Z,1.62
2017-11-20T05:19:35.749Z,1.75
2017-11-20T05:20:10.176Z,1.65
2017-11-20T05:20:44.932Z,1.30
2017-11-20T05:21:19.684Z,1.37
2017-11-20T05:21:54.455Z,1.80
2017-11-20T05:22:29.214Z,1.60
2017-11-20T05:23:03.967Z,1.98
2017-11-20T05:23:38.731Z,1.67
2017-11-20T05:24:13.535Z,1.55
2017-11-20T05:24:48.313Z,1.67
2017-11-20T05:25:23.120Z,1.30
2017-11-20T05:25:57.894Z,1.37
2017-11-20T05:26:32.644Z,1.40
2017-11-20T05:27:07.405Z,1.37
2017-11-20T05:27:42.151Z,1.50
2017-11-20T05:28:16.899Z,1.90
2017-11-20T05:28:51.668Z,1.77
2017-11-20T05:29:26.445Z,1.40
2017-11-20T05:30:01.184Z,1.50
2017-11-20T05:30:35.952Z,1.85
2017-11-20T05:31:10.715Z,2.40
2017-11-20T05:31:45.476Z,1.80
2017-11-20T05:32:20.234Z,1.73
2017-11-20T05:32:55.586Z,1.65
2017-11-20T05:33:30.356Z,1.80
2017-11-20T05:34:04.948Z,2.00
2017-11-20T05:34:39.990Z,1.77
2017-11-20T05:35:14.750Z,2.20
2017-11-20T05:35:49.511Z,1.55
2017-11-20T05:36:24.280Z,1.90
2017-11-20T05:36:59.030Z,1.60
2017-11-20T05:37:33.782Z,1.80
2017-11-20T05:38:08.535Z,1.83
2017-11-20T05:38:43.277Z,1.70
2017-11-20T05:39:18.029Z,1.50
2017-11-20T05:39:52.809Z,2.10
2017-11-20T05:40:27.558Z,2.12
2017-11-20T05:41:02.310Z,1.95
2017-11-20T05:41:37.052Z,1.90
2017-11-20T05:42:11.811Z,2.55
2017-11-20T05:42:46.569Z,2.30
2017-11-20T05:43:21.312Z,2.10
2017-11-20T05:43:56.076Z,1.80
2017-11-20T05:44:30.826Z,1.75
2017-11-20T05:45:05.605Z,2.08
2017-11-20T05:45:40.390Z,1.90
2017-11-20T05:46:15.170Z,2.17
2017-11-20T05:46:49.926Z,1.70
2017-11-20T05:47:24.686Z,2.33
2017-11-20T05:47:59.435Z,2.05
2017-11-20T05:48:34.180Z,2.20
2017-11-20T05:49:08.934Z,1.70
2017-11-20T05:49:43.678Z,1.80
2017-11-20T05:50:18.449Z,2.90
2017-11-20T05:50:52.885Z,2.10
2017-11-20T05:51:27.642Z,1.95
2017-11-20T05:52:02.534Z,2.37
2017-11-20T05:52:37.293Z,1.90
2017-11-20T05:53:12.041Z,2.20
2017-11-20T05:53:46.789Z,2.05
2017-11-20T05:54:21.535Z,2.70
2017-11-20T05:54:56.282Z,2.30
2017-11-20T05:55:31.049Z,2.50
2017-11-20T05:56:05.801Z,2.20
2017-11-20T05:56:40.551Z,3.53
2017-11-20T05:57:15.310Z,3.87
2017-11-20T05:57:50.076Z,3.67
2017-11-20T05:58:24.841Z,3.90
2017-11-20T05:58:59.587Z,4.07
2017-11-20T05:59:34.342Z,3.37
2017-11-20T06:00:08.761Z,3.92
2017-11-20T06:00:43.543Z,3.42
2017-11-20T06:01:18.307Z,2.90
2017-11-20T06:01:53.063Z,3.40
2017-11-20T06:02:27.834Z,3.60
2017-11-20T06:03:02.594Z,2.95
2017-11-20T06:03:37.350Z,3.65
2017-11-20T06:04:12.123Z,3.87
2017-11-20T06:04:46.879Z,4.50
2017-11-20T06:05:21.623Z,3.47
2017-11-20T06:05:56.406Z,3.62
2017-11-20T06:06:31.161Z,3.40
2017-11-20T06:07:05.901Z,3.90
2017-11-20T06:07:40.677Z,3.80
2017-11-20T06:08:15.438Z,4.28
2017-11-20T06:08:50.203Z,3.67
2017-11-20T06:09:25.068Z,4.12
2017-11-20T06:09:59.836Z,3.97
2017-11-20T06:10:34.605Z,3.42
2017-11-20T06:11:09.712Z,3.58
2017-11-20T06:11:44.489Z,4.22
2017-11-20T06:12:19.240Z,4.20
2017-11-20T06:12:54.065Z,3.80
2017-11-20T06:13:29.179Z,3.78
2017-11-20T06:14:03.599Z,3.15
2017-11-20T06:14:38.351Z,3.75
2017-11-20T06:15:13.102Z,4.30
2017-11-20T06:15:47.865Z,5.75
2017-11-20T06:16:22.931Z,5.78
2017-11-20T06:16:57.684Z,6.05
2017-11-20T06:17:32.450Z,4.90
2017-11-20T06:18:07.212Z,5.68
2017-11-20T06:18:41.977Z,4.25
2017-11-20T06:19:16.737Z,4.80
2017-11-20T06:19:51.525Z,4.68
2017-11-20T06:20:26.270Z,3.90
2017-11-20T06:21:01.035Z,4.05
2017-11-20T06:21:35.837Z,4.30
2017-11-20T06:22:10.606Z,4.47
2017-11-20T06:22:45.365Z,4.87
2017-11-20T06:23:20.111Z,4.12
2017-11-20T06:23:54.854Z,3.30
2017-11-20T06:24:29.602Z,3.55
2017-11-20T06:25:04.378Z,3.20
2017-11-20T06:25:39.161Z,3.60
2017-11-20T06:26:14.639Z,3.47
2017-11-20T06:26:49.404Z,3.80
2017-11-20T06:27:24.153Z,3.80
2017-11-20T06:27:58.904Z,5.75
2017-11-20T06:28:33.653Z,6.75
2017-11-20T06:29:08.407Z,9.05
2017-11-20T06:29:43.156Z,7.65
2017-11-20T06:30:17.918Z,7.50
2017-11-20T06:30:52.338Z,6.57
2017-11-20T06:31:27.092Z,7.30
2017-11-20T06:32:01.872Z,6.35
2017-11-20T06:32:36.646Z,4.60
2017-11-20T06:33:11.409Z,4.07
2017-11-20T06:33:46.157Z,2.70
2017-11-20T06:34:20.913Z,3.15
2017-11-20T06:34:55.661Z,3.60
2017-11-20T06:35:30.406Z,3.50
2017-11-20T06:36:05.165Z,2.70
2017-11-20T06:36:39.922Z,2.22
2017-11-20T06:37:14.722Z,2.65
2017-11-20T06:37:49.482Z,2.45
2017-11-20T06:38:24.228Z,2.75
2017-11-20T06:38:58.985Z,2.67
2017-11-20T06:39:33.734Z,2.42
2017-11-20T06:40:09.259Z,2.28
2017-11-20T06:40:44.009Z,2.70
2017-11-20T06:41:18.766Z,2.58
2017-11-20T06:41:53.662Z,3.25
2017-11-20T06:42:28.643Z,3.70
2017-11-20T06:43:03.397Z,3.58
2017-11-20T06:43:38.161Z,3.90
2017-11-20T06:44:12.911Z,3.58
2017-11-20T06:44:47.664Z,3.58
2017-11-20T06:45:22.435Z,3.75
2017-11-20T06:45:57.235Z,4.50
2017-11-20T06:46:31.987Z,4.93
2017-11-20T06:47:06.729Z,6.32
2017-11-20T06:47:41.500Z,6.47
2017-11-20T06:48:16.261Z,6.45
2017-11-20T06:48:51.005Z,5.25
2017-11-20T06:49:25.757Z,5.00
2017-11-20T06:50:00.524Z,4.93
2017-11-20T06:50:35.278Z,4.35
2017-11-20T06:51:10.053Z,4.22
2017-11-20T06:51:44.815Z,4.82
2017-11-20T06:52:19.576Z,4.90
2017-11-20T06:52:54.366Z,4.75
2017-11-20T06:53:29.118Z,4.25
2017-11-20T06:54:03.872Z,4.10
2017-11-20T06:54:38.639Z,3.95
2017-11-20T06:55:13.390Z,3.28
2017-11-20T06:55:48.154Z,3.75
2017-11-20T06:56:22.899Z,4.80
2017-11-20T06:56:58.362Z,4.35
2017-11-20T06:57:33.107Z,4.40
2017-11-20T06:58:07.893Z,3.60
2017-11-20T06:58:42.657Z,3.92
2017-11-20T06:59:17.409Z,3.90
2017-11-20T06:59:52.148Z,3.60
2017-11-20T07:00:26.910Z,3.08
2017-11-20T07:01:01.655Z,3.30
2017-11-20T07:01:36.411Z,2.83
2017-11-20T07:02:11.157Z,2.45
2017-11-20T07:02:45.899Z,2.55
2017-11-20T07:03:20.686Z,2.40
2017-11-20T07:03:55.430Z,2.85
2017-11-20T07:04:30.166Z,3.40
2017-11-20T07:05:04.928Z,2.20
2017-11-20T07:05:39.676Z,2.90
2017-11-20T07:06:14.437Z,2.45
2017-11-20T07:06:49.189Z,1.90
2017-11-20T07:07:23.936Z,2.72
2017-11-20T07:07:58.715Z,2.65
2017-11-20T07:08:33.752Z,2.97
2017-11-20T07:09:08.513Z,2.40
2017-11-20T07:09:43.294Z,2.90
2017-11-20T07:10:18.066Z,2.42
2017-11-20T07:10:52.486Z,2.42
2017-11-20T07:11:27.239Z,2.60
2017-11-20T07:12:01.998Z,3.42
2017-11-20T07:12:36.853Z,4.05
2017-11-20T07:13:11.604Z,3.37
2017-11-20T07:13:46.394Z,3.50
2017-11-20T07:14:21.151Z,3.40
2017-11-20T07:14:55.898Z,4.10
2017-11-20T07:15:30.760Z,3.35
2017-11-20T07:16:05.570Z,4.05
2017-11-20T07:16:40.323Z,3.30
2017-11-20T07:17:15.078Z,3.55
2017-11-20T07:17:49.834Z,3.28
2017-11-20T07:18:24.586Z,2.90
2017-11-20T07:18:59.388Z,2.90
2017-11-20T07:19:34.138Z,3.00
2017-11-20T07:20:08.899Z,3.12
2017-11-20T07:20:43.645Z,3.03
2017-11-20T07:21:18.385Z,3.10
2017-11-20T07:21:52.955Z,2.50
2017-11-20T07:22:27.795Z,2.45
2017-11-20T07:23:02.543Z,2.45
2017-11-20T07:23:37.324Z,2.08
2017-11-20T07:24:12.763Z,2.00
2017-11-20T07:24:47.522Z,2.12
2017-11-20T07:25:27.778Z,2.28
2017-11-20T07:26:08.023Z,2.37
2017-11-20T07:26:48.224Z,2.25
2017-11-20T07:27:28.457Z,2.20
2017-11-20T07:28:03.228Z,2.12
2017-11-20T07:28:43.656Z,2.78
2017-11-20T07:29:24.071Z,2.20
2017-11-20T07:30:04.378Z,2.58
2017-11-20T07:30:44.771Z,2.42
2017-11-20T07:31:25.043Z,2.28
2017-11-20T07:31:59.859Z,2.10
2017-11-20T07:32:34.747Z,2.08
2017-11-20T07:33:09.566Z,2.10
2017-11-20T07:33:50.002Z,2.30
2017-11-20T07:34:30.429Z,2.30
2017-11-20T07:35:10.705Z,2.50
2017-11-20T07:35:50.966Z,2.33
2017-11-20T07:36:31.146Z,1.95
2017-11-20T07:37:11.431Z,2.00
2017-11-20T07:37:51.853Z,2.12
2017-11-20T07:38:32.152Z,2.20
2017-11-20T07:39:15.161Z,1.85
2017-11-20T07:39:55.660Z,1.90
2017-11-20T07:40:35.925Z,2.15
2017-11-20T07:41:10.342Z,2.12
2017-11-20T07:41:50.798Z,2.47
2017-11-20T07:42:25.557Z,2.15
2017-11-20T07:43:00.345Z,2.00
2017-11-20T07:43:34.917Z,2.10
2017-11-20T07:44:09.665Z,2.28
2017-11-20T07:44:44.414Z,2.40
2017-11-20T07:45:19.205Z,1.67
2017-11-20T07:45:53.953Z,2.20
2017-11-20T07:46:28.710Z,1.70